createdAt,value
2017-09-24T00:00:48.492Z,68.90
2017-09-24T00:03:16.005Z,68.90
2017-09-24T00:05:43.975Z,68.80
2017-09-24T00:08:11.475Z,68.80
2017-09-24T00:10:38.988Z,68.90
2017-09-24T00:13:06.549Z,68.80
2017-09-24T00:15:34.050Z,68.80
2017-09-24T00:18:01.546Z,68.70
2017-09-24T00:20:29.059Z,68.70
2017-09-24T00:22:56.966Z,68.60
2017-09-24T00:25:24.495Z,68.60
2017-09-24T00:27:52.391Z,68.50
2017-09-24T00:30:21.019Z,69.20
2017-09-24T00:32:49.662Z,68.40
2017-09-24T00:35:17.159Z,68.60
2017-09-24T00:37:46.175Z,68.60
2017-09-24T00:40:14.075Z,68.40
2017-09-24T00:42:42.711Z,68.40
2017-09-24T00:45:10.231Z,68.30
2017-09-24T00:47:38.865Z,68.50
2017-09-24T00:50:06.355Z,68.30
2017-09-24T00:55:03.275Z,68.20
2017-09-24T00:57:31.346Z,67.90
2017-09-24T00:59:58.938Z,68.10
2017-09-24T01:02:26.459Z,68.00
2017-09-24T01:04:53.959Z,67.90
2017-09-24T01:07:21.471Z,67.80
2017-09-24T01:09:49.364Z,67.70
2017-09-24T01:12:16.876Z,67.70
2017-09-24T01:14:44.371Z,67.70
2017-09-24T01:17:11.889Z,67.70
2017-09-24T01:19:39.400Z,67.80
2017-09-24T01:22:06.932Z,67.80
2017-09-24T01:24:35.376Z,67.80
2017-09-24T01:27:02.893Z,67.70
2017-09-24T01:29:30.395Z,67.80
2017-09-24T01:31:57.920Z,67.80
2017-09-24T01:34:25.621Z,67.80
2017-09-24T01:36:53.535Z,67.70
2017-09-24T01:39:21.127Z,67.70
2017-09-24T01:44:17.506Z,67.50
2017-09-24T01:46:45.032Z,67.60
2017-09-24T01:49:12.587Z,67.50
2017-09-24T01:51:40.875Z,67.30
2017-09-24T01:54:09.144Z,67.50
2017-09-24T01:56:37.432Z,67.40
2017-09-24T01:59:05.699Z,67.70
2017-09-24T02:04:02.457Z,67.80
2017-09-24T02:06:29.983Z,67.80
2017-09-24T02:08:57.491Z,68.00
2017-09-24T02:11:25.024Z,68.10
2017-09-24T02:13:52.532Z,68.00
2017-09-24T02:16:20.799Z,68.60
2017-09-24T02:18:49.062Z,69.50
2017-09-24T02:21:17.687Z,68.90
2017-09-24T02:23:45.191Z,68.40
2017-09-24T02:26:12.699Z,68.60
2017-09-24T02:28:41.331Z,69.20
2017-09-24T02:31:08.922Z,68.60
2017-09-24T02:33:36.815Z,68.70
2017-09-24T02:36:04.321Z,68.80
2017-09-24T02:38:33.335Z,68.70
2017-09-24T02:41:00.844Z,68.90
2017-09-24T02:43:28.354Z,68.80
2017-09-24T02:48:24.798Z,68.60
2017-09-24T02:50:52.299Z,68.50
2017-09-24T02:53:19.797Z,68.50
2017-09-24T02:58:16.971Z,68.10
2017-09-24T03:00:45.991Z,68.20
2017-09-24T03:03:13.517Z,68.60
2017-09-24T03:05:42.163Z,69.30
2017-09-24T03:10:38.626Z,69.00
2017-09-24T03:13:07.291Z,68.90
2017-09-24T03:15:34.795Z,68.80
2017-09-24T03:18:03.455Z,68.80
2017-09-24T03:20:30.963Z,69.00
2017-09-24T03:22:58.560Z,69.10
2017-09-24T03:25:26.222Z,69.20
2017-09-24T03:27:53.747Z,69.20
2017-09-24T03:30:22.025Z,69.80
2017-09-24T03:32:51.263Z,69.00
2017-09-24T03:35:19.718Z,69.10
2017-09-24T03:37:47.239Z,69.20
2017-09-24T03:40:14.737Z,69.20
2017-09-24T03:42:42.259Z,69.20
2017-09-24T03:45:09.943Z,69.20
2017-09-24T03:47:37.571Z,68.90
2017-09-24T03:50:05.478Z,69.20
2017-09-24T03:52:32.998Z,69.20
2017-09-24T03:55:02.003Z,69.10
2017-09-24T03:57:29.624Z,69.20
2017-09-24T03:59:57.134Z,69.10
2017-09-24T04:02:24.672Z,69.50
2017-09-24T04:04:52.245Z,69.50
2017-09-24T04:07:20.709Z,69.30
2017-09-24T04:09:48.211Z,69.50
2017-09-24T04:12:16.494Z,69.50
2017-09-24T04:14:44.004Z,69.50
2017-09-24T04:17:11.523Z,69.50
2017-09-24T04:19:39.110Z,69.30
2017-09-24T04:22:06.627Z,69.20
2017-09-24T04:24:34.144Z,69.00
2017-09-24T04:27:01.670Z,69.00
2017-09-24T04:29:29.247Z,68.90
2017-09-24T04:31:56.751Z,68.90
2017-09-24T04:34:24.242Z,68.80
2017-09-24T04:36:51.744Z,68.80
2017-09-24T04:39:19.243Z,68.70
2017-09-24T04:41:46.757Z,68.70
2017-09-24T04:44:14.356Z,68.70
2017-09-24T04:46:41.871Z,68.90
2017-09-24T04:49:09.377Z,68.80
2017-09-24T04:51:37.339Z,69.00
2017-09-24T04:54:04.831Z,69.00
2017-09-24T04:56:33.479Z,69.00
2017-09-24T04:59:00.987Z,69.00
2017-09-24T05:01:28.500Z,68.90
2017-09-24T05:03:56.031Z,68.80
2017-09-24T05:06:23.528Z,69.00
2017-09-24T05:08:51.051Z,69.10
2017-09-24T05:11:18.563Z,69.20
2017-09-24T05:13:46.887Z,68.90
2017-09-24T05:16:14.545Z,68.60
2017-09-24T05:18:42.205Z,68.70
2017-09-24T05:21:10.107Z,68.70
2017-09-24T05:23:37.730Z,68.60
2017-09-24T05:26:06.908Z,68.70
2017-09-24T05:28:35.567Z,68.60
2017-09-24T05:31:03.967Z,69.20
2017-09-24T05:33:31.886Z,69.00
2017-09-24T05:35:59.387Z,69.10
2017-09-24T05:38:26.911Z,69.10
2017-09-24T05:40:54.409Z,69.10
2017-09-24T05:43:22.071Z,69.10
2017-09-24T05:45:49.566Z,69.20
2017-09-24T05:48:17.092Z,69.30
2017-09-24T05:50:44.991Z,69.30
2017-09-24T05:53:12.526Z,69.40
2017-09-24T05:55:40.024Z,69.60
2017-09-24T05:58:08.315Z,70.90
2017-09-24T06:03:05.132Z,69.30
2017-09-24T06:05:32.647Z,69.50
2017-09-24T06:08:00.183Z,69.60
2017-09-24T06:10:27.751Z,69.70
2017-09-24T06:12:55.404Z,69.80
2017-09-24T06:15:22.907Z,70.10
2017-09-24T06:17:51.734Z,70.10
2017-09-24T06:20:19.238Z,70.10
2017-09-24T06:22:46.776Z,69.90
2017-09-24T06:25:14.305Z,69.60
2017-09-24T06:27:41.961Z,69.90
2017-09-24T06:30:09.468Z,70.00
2017-09-24T06:32:36.999Z,69.90
2017-09-24T06:35:04.507Z,70.00
2017-09-24T06:37:32.011Z,69.80
2017-09-24T06:39:59.926Z,69.90
2017-09-24T06:42:28.203Z,70.70
2017-09-24T06:44:56.105Z,70.60
2017-09-24T06:47:23.611Z,70.50
2017-09-24T06:49:51.115Z,70.40
2017-09-24T06:52:18.619Z,70.40
2017-09-24T06:54:46.118Z,70.70
2017-09-24T06:57:13.776Z,70.80
2017-09-24T06:59:41.424Z,70.80
2017-09-24T07:02:09.319Z,71.00
2017-09-24T07:04:36.831Z,70.90
2017-09-24T07:07:04.333Z,71.20
2017-09-24T07:09:31.836Z,71.50
2017-09-24T07:11:59.343Z,72.00
2017-09-24T07:14:26.851Z,72.20
2017-09-24T07:16:54.353Z,72.30
2017-09-24T07:19:22.263Z,72.10
2017-09-24T07:21:49.783Z,72.20
2017-09-24T07:24:17.392Z,72.70
2017-09-24T07:26:44.899Z,72.60
2017-09-24T07:29:12.817Z,72.50
2017-09-24T07:31:40.719Z,72.20
2017-09-24T07:34:08.376Z,72.00
2017-09-24T07:36:35.875Z,72.10
2017-09-24T07:39:03.396Z,72.00
2017-09-24T07:41:30.995Z,72.20
2017-09-24T07:44:00.019Z,72.30
2017-09-24T07:46:27.911Z,72.50
2017-09-24T07:48:55.439Z,72.70
2017-09-24T07:53:51.955Z,73.30
2017-09-24T07:56:19.455Z,73.40
2017-09-24T07:58:46.987Z,73.60
2017-09-24T08:01:14.503Z,73.40
2017-09-24T08:03:42.027Z,72.40
2017-09-24T08:06:10.303Z,72.70
2017-09-24T08:08:37.821Z,71.70
2017-09-24T08:11:05.323Z,71.40
2017-09-24T08:13:33.632Z,71.10
2017-09-24T08:16:01.146Z,70.70
2017-09-24T08:18:28.671Z,70.40
2017-09-24T08:20:56.573Z,69.60
2017-09-24T08:23:24.099Z,69.20
2017-09-24T08:25:51.598Z,68.50
2017-09-24T08:28:19.883Z,69.00
2017-09-24T08:30:47.394Z,68.00
2017-09-24T08:33:14.901Z,67.40
2017-09-24T08:35:43.162Z,66.80
2017-09-24T08:38:10.663Z,66.50
2017-09-24T08:40:39.305Z,65.50
2017-09-24T08:43:07.210Z,65.70
2017-09-24T08:45:35.479Z,65.10
2017-09-24T08:48:02.979Z,65.30
2017-09-24T08:50:30.479Z,64.90
2017-09-24T08:52:58.742Z,64.10
2017-09-24T08:55:27.019Z,63.70
2017-09-24T08:57:54.570Z,63.90
2017-09-24T09:00:22.083Z,63.70
2017-09-24T09:02:50.091Z,63.60
2017-09-24T09:05:17.738Z,63.00
2017-09-24T09:07:45.243Z,62.70
2017-09-24T09:10:13.683Z,62.40
2017-09-24T09:12:41.342Z,62.30
2017-09-24T09:15:08.998Z,62.60
2017-09-24T09:17:36.644Z,62.00
2017-09-24T09:20:04.298Z,61.60
2017-09-24T09:22:32.371Z,60.80
2017-09-24T09:24:59.899Z,61.00
2017-09-24T09:27:28.299Z,61.30
2017-09-24T09:29:55.969Z,60.90
2017-09-24T09:32:23.474Z,59.20
2017-09-24T09:37:26.598Z,58.60
2017-09-24T09:39:54.886Z,57.80
2017-09-24T09:42:22.390Z,57.80
2017-09-24T09:44:51.595Z,55.70
2017-09-24T09:47:26.456Z,55.30
2017-09-24T09:49:54.446Z,54.00
2017-09-24T09:52:21.973Z,54.50
2017-09-24T09:54:50.319Z,55.00
2017-09-24T09:57:17.835Z,55.70
2017-09-24T09:59:45.376Z,55.90
2017-09-24T10:02:12.875Z,56.30
2017-09-24T10:04:40.787Z,55.90
2017-09-24T10:07:20.604Z,54.20
2017-09-24T10:10:08.043Z,54.30
2017-09-24T10:12:35.684Z,54.30
2017-09-24T10:15:03.203Z,52.70
2017-09-24T10:17:30.707Z,52.90
2017-09-24T10:19:59.339Z,53.50
2017-09-24T10:22:27.231Z,53.80
2017-09-24T10:24:55.123Z,52.80
2017-09-24T10:27:23.395Z,52.90
2017-09-24T10:30:03.348Z,54.20
2017-09-24T10:32:30.847Z,54.10
2017-09-24T10:34:58.351Z,55.10
2017-09-24T10:37:26.279Z,54.90
2017-09-24T10:39:53.899Z,56.00
2017-09-24T10:42:21.395Z,56.50
2017-09-24T10:44:49.395Z,57.30
2017-09-24T10:47:17.015Z,57.40
2017-09-24T10:49:44.511Z,58.30
2017-09-24T10:54:41.265Z,58.20
2017-09-24T10:57:08.937Z,58.60
2017-09-24T10:59:36.467Z,58.90
2017-09-24T11:02:05.495Z,58.50
2017-09-24T11:04:32.996Z,59.10
2017-09-24T11:07:00.914Z,58.70
2017-09-24T11:09:29.698Z,59.30
2017-09-24T11:11:57.751Z,58.60
2017-09-24T11:14:25.408Z,58.40
2017-09-24T11:16:52.927Z,58.00
2017-09-24T11:19:20.827Z,58.00
2017-09-24T11:21:48.360Z,57.70
2017-09-24T11:24:15.972Z,58.30
2017-09-24T11:26:44.262Z,58.00
2017-09-24T11:29:11.795Z,57.40
2017-09-24T11:31:39.746Z,57.90
2017-09-24T11:34:07.250Z,57.50
2017-09-24T11:36:34.948Z,58.50
2017-09-24T11:39:02.451Z,58.40
2017-09-24T11:41:29.971Z,56.50
2017-09-24T11:43:57.677Z,56.40
2017-09-24T11:46:25.195Z,56.90
2017-09-24T11:48:52.838Z,56.30
2017-09-24T11:51:20.363Z,56.40
2017-09-24T11:53:48.622Z,57.00
2017-09-24T11:56:17.036Z,55.80
2017-09-24T11:58:44.546Z,56.50
2017-09-24T12:01:12.054Z,55.10
2017-09-24T12:03:39.556Z,55.60
2017-09-24T12:06:07.462Z,55.30
2017-09-24T12:08:35.747Z,54.90
2017-09-24T12:11:04.020Z,54.60
2017-09-24T12:13:31.923Z,53.50
2017-09-24T12:15:59.536Z,54.00
2017-09-24T12:20:56.287Z,53.00
2017-09-24T12:23:24.565Z,53.50
2017-09-24T12:25:52.221Z,53.30
2017-09-24T12:28:19.728Z,53.30
2017-09-24T12:30:47.228Z,52.70
2017-09-24T12:33:14.727Z,52.60
2017-09-24T12:35:42.218Z,52.80
2017-09-24T12:38:09.711Z,53.80
2017-09-24T12:40:37.611Z,52.40
2017-09-24T12:43:06.634Z,54.40
2017-09-24T12:45:34.127Z,55.00
2017-09-24T12:48:01.623Z,55.70
2017-09-24T12:50:29.892Z,56.00
2017-09-24T12:52:57.411Z,56.30
2017-09-24T12:55:26.419Z,56.60
2017-09-24T12:57:53.932Z,56.80
2017-09-24T13:00:21.431Z,57.30
2017-09-24T13:05:17.783Z,57.60
2017-09-24T13:10:14.907Z,57.70
2017-09-24T13:15:11.291Z,58.20
2017-09-24T13:17:38.815Z,58.40
2017-09-24T13:20:06.311Z,59.20
2017-09-24T13:22:34.588Z,60.70
2017-09-24T13:25:02.482Z,59.40
2017-09-24T13:27:30.027Z,59.40
2017-09-24T13:29:57.914Z,59.50
2017-09-24T13:32:26.204Z,60.10
2017-09-24T13:34:53.831Z,59.90
2017-09-24T13:37:21.483Z,60.10
2017-09-24T13:39:48.978Z,60.70
2017-09-24T13:42:16.878Z,61.00
2017-09-24T13:44:45.156Z,61.50
2017-09-24T13:47:13.067Z,61.10
2017-09-24T13:49:40.578Z,61.30
2017-09-24T13:52:08.091Z,61.70
2017-09-24T13:54:35.593Z,61.60
2017-09-24T13:57:03.860Z,61.60
2017-09-24T13:59:32.126Z,61.90
2017-09-24T14:02:00.394Z,62.00
2017-09-24T14:04:29.207Z,61.60
2017-09-24T14:06:56.712Z,61.70
2017-09-24T14:09:24.207Z,61.80
2017-09-24T14:11:52.607Z,61.60
2017-09-24T14:14:20.251Z,61.40
2017-09-24T14:16:47.767Z,61.50
2017-09-24T14:19:16.215Z,62.40
2017-09-24T14:21:44.484Z,61.70
2017-09-24T14:24:11.980Z,61.80
2017-09-24T14:26:40.243Z,62.50
2017-09-24T14:29:07.739Z,62.00
2017-09-24T14:31:36.027Z,62.90
2017-09-24T14:34:04.666Z,63.20
2017-09-24T14:36:33.403Z,62.80
2017-09-24T14:39:02.416Z,62.60
2017-09-24T14:41:29.946Z,63.00
2017-09-24T14:43:57.471Z,63.30
2017-09-24T14:46:25.140Z,63.40
2017-09-24T14:48:52.658Z,63.30
2017-09-24T14:51:20.928Z,64.10
2017-09-24T14:53:48.841Z,63.60
2017-09-24T14:56:16.401Z,63.70
2017-09-24T14:58:43.932Z,63.60
2017-09-24T15:01:11.510Z,63.60
2017-09-24T15:03:39.028Z,63.20
2017-09-24T15:06:07.300Z,63.90
2017-09-24T15:08:35.591Z,64.10
2017-09-24T15:11:03.092Z,63.50
2017-09-24T15:13:30.624Z,63.30
2017-09-24T15:15:58.511Z,63.40
2017-09-24T15:18:26.041Z,63.70
2017-09-24T15:20:53.579Z,63.80
2017-09-24T15:23:21.118Z,63.80
2017-09-24T15:25:49.387Z,64.20
2017-09-24T15:28:17.677Z,64.30
2017-09-24T15:33:14.143Z,63.60
2017-09-24T15:35:41.659Z,63.90
2017-09-24T15:38:09.962Z,64.50
2017-09-24T15:40:37.471Z,64.10
2017-09-24T15:43:04.994Z,63.80
2017-09-24T15:45:32.489Z,64.00
2017-09-24T15:48:00.019Z,64.20
2017-09-24T15:50:27.541Z,64.50
2017-09-24T15:52:55.042Z,64.90
2017-09-24T15:55:22.548Z,65.10
2017-09-24T15:57:50.098Z,64.90
2017-09-24T16:00:17.602Z,64.80
2017-09-24T16:02:45.221Z,64.90
2017-09-24T16:05:13.110Z,64.70
2017-09-24T16:07:40.623Z,64.90
2017-09-24T16:10:08.196Z,64.70
2017-09-24T16:12:36.107Z,64.70
2017-09-24T16:15:04.371Z,65.20
2017-09-24T16:17:32.271Z,64.90
2017-09-24T16:20:00.544Z,64.90
2017-09-24T16:22:29.182Z,64.70
2017-09-24T16:24:56.682Z,65.00
2017-09-24T16:27:24.948Z,65.70
2017-09-24T16:29:53.226Z,65.70
2017-09-24T16:32:21.499Z,65.80
2017-09-24T16:34:49.763Z,65.90
2017-09-24T16:37:17.655Z,65.30
2017-09-24T16:39:45.171Z,65.00
2017-09-24T16:42:12.664Z,65.40
2017-09-24T16:44:40.181Z,65.50
2017-09-24T16:47:07.683Z,65.60
2017-09-24T16:49:35.231Z,65.50
2017-09-24T16:52:02.905Z,65.40
2017-09-24T16:54:30.547Z,65.30
2017-09-24T16:56:58.444Z,65.20
2017-09-24T16:59:25.959Z,65.20
2017-09-24T17:01:53.468Z,65.20
2017-09-24T17:04:20.991Z,65.30
2017-09-24T17:06:48.487Z,65.30
2017-09-24T17:09:16.780Z,65.50
2017-09-24T17:11:45.811Z,65.50
2017-09-24T17:14:13.335Z,65.30
2017-09-24T17:16:41.615Z,65.10
2017-09-24T17:19:09.156Z,65.10
2017-09-24T17:21:36.663Z,65.50
2017-09-24T17:24:04.306Z,65.70
2017-09-24T17:26:31.835Z,65.70
2017-09-24T17:29:00.135Z,66.50
2017-09-24T17:31:27.635Z,66.00
2017-09-24T17:33:55.159Z,65.90
2017-09-24T17:36:22.800Z,65.90
2017-09-24T17:38:50.315Z,66.00
2017-09-24T17:41:18.587Z,66.10
2017-09-24T17:43:46.107Z,66.30
2017-09-24T17:46:13.636Z,66.30
2017-09-24T17:48:41.162Z,66.00
2017-09-24T17:51:09.432Z,66.50
2017-09-24T17:53:37.723Z,65.70
2017-09-24T17:56:05.235Z,65.90
2017-09-24T17:58:33.586Z,66.10
2017-09-24T18:01:01.099Z,66.10
2017-09-24T18:03:29.756Z,65.90
2017-09-24T18:05:58.036Z,66.30
2017-09-24T18:08:25.545Z,65.70
2017-09-24T18:10:53.042Z,65.20
2017-09-24T18:13:20.535Z,65.40
2017-09-24T18:15:48.203Z,65.20
2017-09-24T18:18:15.712Z,65.50
2017-09-24T18:20:43.979Z,66.20
2017-09-24T18:23:12.991Z,65.10
2017-09-24T18:25:40.676Z,64.60
2017-09-24T18:28:08.184Z,65.10
2017-09-24T18:30:35.694Z,65.10
2017-09-24T18:33:03.199Z,64.40
2017-09-24T18:35:32.207Z,65.50
2017-09-24T18:38:00.471Z,66.50
2017-09-24T18:40:28.878Z,66.70
2017-09-24T18:42:56.379Z,66.50
2017-09-24T18:45:23.991Z,66.40
2017-09-24T18:47:51.496Z,66.50
2017-09-24T18:50:19.032Z,66.50
2017-09-24T18:52:46.544Z,65.90
2017-09-24T18:55:14.823Z,65.40
2017-09-24T18:57:42.736Z,65.80
2017-09-24T19:00:11.171Z,66.20
2017-09-24T19:02:38.679Z,66.60
2017-09-24T19:05:06.203Z,66.40
2017-09-24T19:07:33.719Z,66.40
2017-09-24T19:10:01.647Z,66.30
2017-09-24T19:12:29.539Z,66.30
2017-09-24T19:14:57.838Z,66.90
2017-09-24T19:17:26.108Z,66.10
2017-09-24T19:19:53.667Z,66.30
2017-09-24T19:22:21.191Z,66.50
2017-09-24T19:24:49.599Z,67.60
2017-09-24T19:27:17.268Z,66.70
2017-09-24T19:29:44.929Z,66.60
2017-09-24T19:32:13.203Z,66.70
2017-09-24T19:34:40.703Z,66.60
2017-09-24T19:37:08.296Z,66.60
2017-09-24T19:39:35.801Z,66.40
2017-09-24T19:42:03.312Z,66.40
2017-09-24T19:44:30.831Z,66.50
2017-09-24T19:46:59.091Z,66.50
2017-09-24T19:49:26.607Z,66.30
2017-09-24T19:51:54.127Z,66.30
2017-09-24T19:54:22.026Z,66.20
2017-09-24T19:56:49.580Z,66.20
2017-09-24T19:59:17.223Z,66.20
2017-09-24T20:01:44.887Z,66.20
2017-09-24T20:04:12.400Z,66.10
2017-09-24T20:06:40.815Z,66.60
2017-09-24T20:09:08.319Z,66.20
2017-09-24T20:11:35.941Z,66.50
2017-09-24T20:14:03.443Z,66.30
2017-09-24T20:16:31.864Z,66.40
2017-09-24T20:19:00.163Z,66.40
2017-09-24T20:21:27.675Z,66.30
2017-09-24T20:23:55.964Z,67.00
2017-09-24T20:26:23.863Z,66.60
2017-09-24T20:28:51.594Z,66.60
2017-09-24T20:31:19.248Z,66.60
2017-09-24T20:33:46.756Z,66.60
2017-09-24T20:36:14.269Z,66.60
2017-09-24T20:38:41.775Z,66.50
2017-09-24T20:41:09.288Z,66.60
2017-09-24T20:43:37.184Z,66.60
2017-09-24T20:46:05.451Z,66.60
2017-09-24T20:48:33.734Z,66.60
2017-09-24T20:51:01.344Z,66.60
2017-09-24T20:53:29.603Z,66.50
2017-09-24T20:55:57.275Z,66.70
2017-09-24T20:58:24.779Z,66.60
2017-09-24T21:00:53.803Z,66.60
2017-09-24T21:03:22.079Z,66.60
2017-09-24T21:05:49.743Z,66.60
2017-09-24T21:08:18.423Z,66.60
2017-09-24T21:10:45.942Z,66.70
2017-09-24T21:13:14.952Z,66.40
2017-09-24T21:15:42.468Z,66.50
2017-09-24T21:18:11.120Z,66.50
2017-09-24T21:20:38.643Z,66.30
2017-09-24T21:23:07.299Z,66.50
2017-09-24T21:25:34.828Z,66.60
2017-09-24T21:28:03.847Z,66.60
2017-09-24T21:30:31.364Z,66.70
2017-09-24T21:32:59.625Z,66.70
2017-09-24T21:35:27.171Z,66.70
2017-09-24T21:37:54.844Z,66.70
2017-09-24T21:40:22.368Z,66.60
2017-09-24T21:42:51.008Z,66.70
2017-09-24T21:45:18.634Z,67.00
2017-09-24T21:47:46.295Z,67.10
2017-09-24T21:50:13.820Z,67.20
2017-09-24T21:55:10.975Z,67.10
2017-09-24T21:57:39.231Z,67.10
2017-09-24T22:00:07.531Z,67.10
2017-09-24T22:02:36.332Z,66.90
2017-09-24T22:05:04.003Z,66.90
2017-09-24T22:10:00.511Z,66.60
2017-09-24T22:12:28.209Z,66.60
2017-09-24T22:14:55.727Z,66.60
2017-09-24T22:17:24.476Z,66.80
2017-09-24T22:19:52.192Z,66.70
2017-09-24T22:22:19.855Z,66.50
2017-09-24T22:24:47.382Z,66.50
2017-09-24T22:27:15.832Z,67.00
2017-09-24T22:29:44.255Z,66.40
2017-09-24T22:32:11.775Z,66.40
2017-09-24T22:34:39.287Z,66.30
2017-09-24T22:37:08.468Z,66.20
2017-09-24T22:39:35.980Z,66.10
2017-09-24T22:42:03.491Z,66.10
2017-09-24T22:44:31.007Z,66.20
2017-09-24T22:46:58.508Z,66.20
2017-09-24T22:49:26.015Z,66.40
2017-09-24T22:51:54.287Z,67.10
2017-09-24T22:54:22.559Z,67.00
2017-09-24T22:56:51.568Z,66.50
2017-09-24T22:59:19.072Z,66.60
2017-09-24T23:01:46.572Z,66.60
2017-09-24T23:04:15.226Z,66.60
2017-09-24T23:06:42.732Z,66.60
2017-09-24T23:09:10.232Z,66.50
2017-09-24T23:11:39.243Z,67.20
2017-09-24T23:14:07.514Z,67.10
2017-09-24T23:16:35.799Z,67.20
2017-09-24T23:19:03.699Z,66.50
2017-09-24T23:21:31.991Z,66.30
2017-09-24T23:23:59.504Z,66.30
2017-09-24T23:26:27.071Z,66.50
2017-09-24T23:28:54.636Z,66.50
2017-09-24T23:31:22.930Z,66.60
2017-09-24T23:33:50.827Z,66.60
2017-09-24T23:36:19.242Z,66.60
2017-09-24T23:38:46.752Z,66.60
2017-09-24T23:41:15.496Z,66.60
2017-09-24T23:43:43.027Z,66.60
2017-09-24T23:46:10.552Z,66.50
2017-09-24T23:48:38.826Z,67.20
2017-09-24T23:51:08.047Z,66.70
2017-09-24T23:53:35.556Z,66.90
2017-09-24T23:56:03.162Z,66.80
2017-09-24T23:58:30.664Z,66.80
